Time;durP1;ratioP1;P1;durP2;ratioP2;P2;SDS_P1;SDS_P2;PMS_P1;PMS_P2;Temp;Humidity;BMP_temperature;BMP_pressure;BME280_temperature;BME280_humidity;BME280_pressure;Samples;Min_cycle;Max_cycle;Signal;HPM_P1;HPM_P2
2021/06/02 00:09:00;;;;;;;19.3;14.6;;;;;;;6.46;100;98929.44;;;;
2021/06/02 00:18:59;;;;;;;24.3;13.4;;;;;;;6.32;100;98926.53;;;;
2021/06/02 00:28:56;;;;;;;17.1;13.2;;;;;;;6.25;100;98917.98;;;;
2021/06/02 00:38:55;;;;;;;16.4;11.4;;;;;;;6.15;100;98927.9;;;;
2021/06/02 00:48:53;;;;;;;20.2;14.9;;;;;;;6.03;100;98922.85;;;;
2021/06/02 00:58:51;;;;;;;15.6;13;;;;;;;5.94;100;98916.42;;;;
2021/06/02 01:08:49;;;;;;;20.2;15.6;;;;;;;5.87;100;98931.94;;;;
2021/06/02 01:18:47;;;;;;;24.8;14.6;;;;;;;5.79;100;98933.27;;;;
2021/06/02 01:28:45;;;;;;;35.9;13.1;;;;;;;5.68;100;98938.88;;;;
2021/06/02 01:38:46;;;;;;;13.3;10.7;;;;;;;5.55;100;98950.91;;;;
2021/06/02 01:48:41;;;;;;;13.3;11.8;;;;;;;5.38;100;98955.7;;;;
2021/06/02 01:58:39;;;;;;;13.1;11.7;;;;;;;5.24;100;98962.61;;;;
2021/06/02 02:08:37;;;;;;;13.9;12.4;;;;;;;5.14;100;98970.59;;;;
2021/06/02 02:18:35;;;;;;;24;14.6;;;;;;;5.14;100;98967.92;;;;
2021/06/02 02:28:33;;;;;;;17.1;11.9;;;;;;;5.02;100;98958.27;;;;
2021/06/02 02:38:31;;;;;;;15.5;10.6;;;;;;;5.05;100;98964.94;;;;
2021/06/02 02:48:28;;;;;;;14.8;11.8;;;;;;;5.03;100;98970.53;;;;
2021/06/02 02:58:26;;;;;;;16.1;11.2;;;;;;;5.04;100;98980.16;;;;
2021/06/02 03:08:24;;;;;;;17.1;11.2;;;;;;;5.02;100;98995.66;;;;
2021/06/02 03:18:22;;;;;;;17.8;11.8;;;;;;;5.01;100;99001.25;;;;
2021/06/02 03:28:20;;;;;;;14.8;10.2;;;;;;;4.99;100;99004.2;;;;
2021/06/02 03:38:18;;;;;;;14.1;10;;;;;;;5.48;100;99009.17;;;;
2021/06/02 03:48:16;;;;;;;14.5;9.9;;;;;;;5.93;100;99011.95;;;;
2021/06/02 03:58:14;;;;;;;20;17.8;;;;;;;6.26;100;98983.02;;;;
2021/06/02 04:08:12;;;;;;;16;12.4;;;;;;;6.97;100;99027.34;;;;
2021/06/02 04:18:10;;;;;;;21.9;15.6;;;;;;;7.31;100;99035.52;;;;
2021/06/02 04:28:08;;;;;;;18.9;14.8;;;;;;;7.76;100;99023.73;;;;
2021/06/02 04:38:06;;;;;;;28.5;16.3;;;;;;;8.42;100;99052.8;;;;
2021/06/02 04:48:05;;;;;;;21.1;13.7;;;;;;;8.63;100;99056.11;;;;
2021/06/02 04:58:03;;;;;;;21.5;12.7;;;;;;;8.44;100;99039.88;;;;
2021/06/02 05:08:02;;;;;;;13.2;10;;;;;;;9.03;100;99069.13;;;;
2021/06/02 05:18:00;;;;;;;15.4;11;;;;;;;9.45;100;99081.83;;;;
2021/06/02 05:27:58;;;;;;;21.4;11.6;;;;;;;10;100;99062.25;;;;
2021/06/02 05:37:57;;;;;;;12.5;9.1;;;;;;;11.05;100;99103.94;;;;
2021/06/02 05:47:56;;;;;;;12.9;9.3;;;;;;;11.5;100;99096.87;;;;
2021/06/02 05:57:56;;;;;;;12.8;7.8;;;;;;;12.72;100;99117.39;;;;
2021/06/02 06:07:53;;;;;;;9.9;7;;;;;;;13.47;100;99120.03;;;;
2021/06/02 06:18:00;;;;;;;9.3;6.6;;;;;;;14.08;100;99123.7;;;;
2021/06/02 06:27:55;;;;;;;9.8;5.7;;;;;;;14.82;100;99137.91;;;;
2021/06/02 06:37:52;;;;;;;12.1;5.7;;;;;;;15.46;96.2998;99127.04;;;;
2021/06/02 06:47:51;;;;;;;9;5.3;;;;;;;14.95;93.53711;99136.16;;;;
2021/06/02 06:57:50;;;;;;;8.6;4.9;;;;;;;15.37;91.01465;99132.52;;;;
2021/06/02 07:07:50;;;;;;;10.8;7.1;;;;;;;15.45;94.04004;99126.23;;;;
2021/06/02 07:17:50;;;;;;;7.7;5.5;;;;;;;15.98;92.35742;99128.4;;;;
2021/06/02 07:27:47;;;;;;;7.2;4.5;;;;;;;16.38;88.86426;99122.53;;;;
2021/06/02 07:37:47;;;;;;;9.8;5;;;;;;;16.96;85.80762;99127.78;;;;
2021/06/02 07:47:46;;;;;;;12.6;4.1;;;;;;;17.22;83.02246;99113.87;;;;
2021/06/02 07:57:46;;;;;;;5.3;3.5;;;;;;;16.32;73.03809;99127.36;;;;
2021/06/02 08:07:45;;;;;;;5.9;3.9;;;;;;;16.58;73.64063;99132.63;;;;
2021/06/02 08:17:45;;;;;;;5.5;2.6;;;;;;;17.71;67.53125;99143.92;;;;
2021/06/02 08:27:44;;;;;;;5.1;2.2;;;;;;;18.31;53.71777;99154.79;;;;
2021/06/02 08:37:44;;;;;;;6.4;2.6;;;;;;;18.54;57.15723;99150.43;;;;
2021/06/02 08:47:44;;;;;;;6.4;2.6;;;;;;;18.87;58.03223;99152.94;;;;
2021/06/02 08:57:43;;;;;;;4.9;1.8;;;;;;;18.73;47.55762;99151.73;;;;
2021/06/02 09:07:43;;;;;;;4.9;2.1;;;;;;;19.19;47.43262;99150.28;;;;
2021/06/02 09:17:43;;;;;;;4.1;1.7;;;;;;;19.05;49.15918;99147.96;;;;
2021/06/02 09:27:43;;;;;;;6.3;1.7;;;;;;;18.74;49.22949;99145.95;;;;
2021/06/02 09:37:43;;;;;;;4.1;1.9;;;;;;;19.64;50.93164;99139.75;;;;
2021/06/02 09:47:42;;;;;;;4.5;2;;;;;;;19.77;44.75098;99148.64;;;;
2021/06/02 09:57:42;;;;;;;3;1.9;;;;;;;19.93;42.87012;99142;;;;
2021/06/02 10:07:43;;;;;;;4.9;1.8;;;;;;;21.24;44.53711;99139.28;;;;
2021/06/02 10:17:42;;;;;;;4.2;1.6;;;;;;;20.8;44.2373;99130.61;;;;
2021/06/02 10:27:42;;;;;;;3.5;2;;;;;;;19.78;43.1582;99140.09;;;;
2021/06/02 10:37:42;;;;;;;9;2;;;;;;;19.3;44.54102;99130.26;;;;
2021/06/02 10:47:42;;;;;;;4.6;2.6;;;;;;;19.44;44.47363;99151.72;;;;
2021/06/02 10:57:42;;;;;;;18.8;2.6;;;;;;;19.42;44.4834;99143.09;;;;
2021/06/02 11:07:42;;;;;;;5.6;1.9;;;;;;;19.86;45.95898;99139.09;;;;
2021/06/02 11:17:42;;;;;;;5.6;2.5;;;;;;;19.48;45.96582;99138.94;;;;
2021/06/02 11:27:42;;;;;;;5.1;1.8;;;;;;;18.8;44.52637;99130.89;;;;
2021/06/02 11:37:42;;;;;;;4.4;2;;;;;;;19.09;44.0332;99130.5;;;;
2021/06/02 11:47:42;;;;;;;4.7;2.4;;;;;;;19.1;43.18457;99134.03;;;;
2021/06/02 11:57:41;;;;;;;5.8;2.3;;;;;;;19.17;46.52539;99136.16;;;;
2021/06/02 12:07:41;;;;;;;11.3;2.6;;;;;;;20.04;46.6748;99131.3;;;;
2021/06/02 12:17:41;;;;;;;8.7;2.5;;;;;;;20.38;45.02148;99121.52;;;;
2021/06/02 12:27:41;;;;;;;5.5;2.7;;;;;;;20.72;42.32813;99134.34;;;;
2021/06/02 12:37:41;;;;;;;5.2;3.5;;;;;;;20.26;41.10645;99127.11;;;;
2021/06/02 12:47:41;;;;;;;4.4;3;;;;;;;20.87;43.73047;99140.91;;;;
2021/06/02 12:57:41;;;;;;;4.6;1.9;;;;;;;21.16;43.77051;99134.85;;;;
2021/06/02 13:07:41;;;;;;;4.5;2.7;;;;;;;21.94;42.66699;99134.22;;;;
2021/06/02 13:17:41;;;;;;;5.3;2.9;;;;;;;20.32;41.32227;99137.44;;;;
2021/06/02 13:27:41;;;;;;;5.6;2.5;;;;;;;20.25;43.04004;99136.45;;;;
2021/06/02 13:37:42;;;;;;;4.8;2.3;;;;;;;20.8;44.94727;99129.81;;;;
2021/06/02 13:47:42;;;;;;;5;2.6;;;;;;;21.5;43.90918;99141.31;;;;
2021/06/02 13:57:42;;;;;;;6;3.2;;;;;;;21.08;43.24902;99136.63;;;;
2021/06/02 14:07:42;;;;;;;5.2;2.6;;;;;;;21.94;43.53223;99153.43;;;;
2021/06/02 14:17:42;;;;;;;6.8;2;;;;;;;22.43;39.85449;99158.05;;;;
2021/06/02 14:27:42;;;;;;;4.3;2.5;;;;;;;22.14;39.08984;99153.34;;;;
2021/06/02 14:37:43;;;;;;;5.9;2.8;;;;;;;21.89;45.02344;99153.73;;;;
2021/06/02 14:47:43;;;;;;;5.9;2.7;;;;;;;22;44.16895;99153.92;;;;
2021/06/02 14:57:43;;;;;;;4.7;2.4;;;;;;;22.53;41.65625;99154.66;;;;
2021/06/02 15:07:43;;;;;;;8.7;2.4;;;;;;;21.9;40.36816;99154.56;;;;
2021/06/02 15:17:43;;;;;;;4.9;2.2;;;;;;;24.19;34.61719;99166.61;;;;
2021/06/02 15:27:46;;;;;;;4.6;2.4;;;;;;;27.53;35.10156;99160.7;;;;
2021/06/02 15:37:45;;;;;;;5.5;1.9;;;;;;;28.08;27.99414;99161.46;;;;
2021/06/02 15:47:46;;;;;;;4.8;2.2;;;;;;;27.99;28.47656;99150.84;;;;
2021/06/02 15:57:47;;;;;;;4.2;2.1;;;;;;;27.02;29.08008;99151.13;;;;
2021/06/02 16:07:48;;;;;;;4.8;2;;;;;;;28.58;28.64551;99156.19;;;;
2021/06/02 16:17:50;;;;;;;5.4;1.9;;;;;;;26.92;28.70605;99144.46;;;;
2021/06/02 16:27:51;;;;;;;5.5;2.5;;;;;;;28.36;26.81934;99150.09;;;;
2021/06/02 16:37:52;;;;;;;13.1;3.2;;;;;;;27.6;28.6543;99152.35;;;;
2021/06/02 16:47:54;;;;;;;4.8;2.4;;;;;;;28.11;27.24512;99154.33;;;;
2021/06/02 16:57:55;;;;;;;6.2;2;;;;;;;28.72;25.95801;99169.92;;;;
2021/06/02 17:07:56;;;;;;;7.5;2.1;;;;;;;22.91;33.50879;99175.57;;;;
2021/06/02 17:17:57;;;;;;;5.2;2.4;;;;;;;21.4;38.23047;99174.84;;;;
2021/06/02 17:27:58;;;;;;;7.5;2.4;;;;;;;20.18;40.13184;99174.62;;;;
2021/06/02 17:37:58;;;;;;;6;2.4;;;;;;;22.05;36.5752;99183.8;;;;
2021/06/02 17:48:01;;;;;;;4.9;2.3;;;;;;;23.64;35.03516;99183.05;;;;
2021/06/02 17:57:59;;;;;;;5.6;2.6;;;;;;;22.7;36.41699;99180.83;;;;
2021/06/02 18:08:00;;;;;;;41.5;19.4;;;;;;;20.75;39.71582;99176.69;;;;
2021/06/02 18:18:00;;;;;;;7.1;4.1;;;;;;;18.76;44.08105;99181.88;;;;
2021/06/02 18:28:00;;;;;;;6.4;2.5;;;;;;;17.77;46.49512;99184.25;;;;
2021/06/02 18:38:00;;;;;;;5.8;3.8;;;;;;;16.89;48.59668;99195.61;;;;
2021/06/02 18:47:59;;;;;;;8.3;5.3;;;;;;;16.07;52.39941;99210.7;;;;
2021/06/02 18:58:00;;;;;;;16.9;10.5;;;;;;;15.32;56.20215;99221.51;;;;
2021/06/02 19:07:58;;;;;;;11.5;7.7;;;;;;;14.62;60.70508;99225.39;;;;
2021/06/02 19:17:57;;;;;;;14.3;11;;;;;;;13.96;62.44238;99226.48;;;;
2021/06/02 19:27:57;;;;;;;23.6;18.2;;;;;;;13.2;65.02539;99223.09;;;;
2021/06/02 19:37:55;;;;;;;15.4;11.1;;;;;;;12.86;69.47949;99245.27;;;;
2021/06/02 19:47:54;;;;;;;14;11.3;;;;;;;12.6;73.7627;99250.44;;;;
2021/06/02 19:57:53;;;;;;;24.4;18.4;;;;;;;12.28;73.8125;99269.53;;;;
2021/06/02 20:07:51;;;;;;;20;13.9;;;;;;;11.97;78.65039;99263.94;;;;
2021/06/02 20:17:50;;;;;;;15.2;12.1;;;;;;;11.87;79.34375;99274.91;;;;
2021/06/02 20:27:51;;;;;;;17.4;12.5;;;;;;;11.62;79.73926;99283.47;;;;
2021/06/02 20:37:47;;;;;;;20;12.4;;;;;;;11.39;80.92969;99281.69;;;;
2021/06/02 20:47:46;;;;;;;15.2;9.4;;;;;;;11.39;80.50098;99284.38;;;;
2021/06/02 20:57:45;;;;;;;15.2;12.7;;;;;;;11.31;80.40723;99287.77;;;;
2021/06/02 21:07:43;;;;;;;12.9;10.7;;;;;;;11.18;81.43164;99300.09;;;;
2021/06/02 21:17:44;;;;;;;20.9;12.4;;;;;;;10.92;79.16113;99298.89;;;;
2021/06/02 21:27:40;;;;;;;12;8.7;;;;;;;10.42;83.18262;99295.78;;;;
2021/06/02 21:37:39;;;;;;;14.7;9.3;;;;;;;9.99;86.20508;99303.02;;;;
2021/06/02 21:47:37;;;;;;;11.7;8.9;;;;;;;9.78;95.52734;99301.62;;;;
2021/06/02 21:57:35;;;;;;;12.5;7.6;;;;;;;9.38;100;99315.42;;;;
2021/06/02 22:07:34;;;;;;;11;7.7;;;;;;;9.26;98.27539;99309.61;;;;
2021/06/02 22:17:32;;;;;;;7.8;5.9;;;;;;;9.54;96.32324;99306.16;;;;
2021/06/02 22:27:31;;;;;;;9.2;7;;;;;;;9.53;93.86035;99308.04;;;;
2021/06/02 22:37:29;;;;;;;11.7;7.6;;;;;;;9.32;98.50098;99316.55;;;;
2021/06/02 22:47:27;;;;;;;10.4;7.5;;;;;;;8.87;100;99310.42;;;;
2021/06/02 22:57:25;;;;;;;9.7;5.7;;;;;;;8.68;100;99316.72;;;;
2021/06/02 23:07:24;;;;;;;8.2;6.7;;;;;;;8.37;100;99297.23;;;;
2021/06/02 23:17:22;;;;;;;19.1;7.4;;;;;;;8.08;100;99300.56;;;;
2021/06/02 23:27:20;;;;;;;14.3;9.3;;;;;;;7.86;100;99292.02;;;;
2021/06/02 23:37:18;;;;;;;14;9.8;;;;;;;7.7;100;99308.43;;;;
2021/06/02 23:47:16;;;;;;;11.3;8.4;;;;;;;7.41;100;99317.03;;;;
2021/06/02 23:57:14;;;;;;;15.2;11.8;;;;;;;7.42;100;99323.2;;;;
